sensor_id;sensor_type;location;lat;lon;timestamp;P1;durP1;ratioP1;P2;durP2;ratioP2
67528;SDS011;54366;51.980;5.856;2022-07-29T00:02:06;1.40;;;0.68;;
67528;SDS011;54366;51.980;5.856;2022-07-29T00:04:36;1.55;;;0.60;;
67528;SDS011;54366;51.980;5.856;2022-07-29T00:07:03;2.28;;;0.60;;
67528;SDS011;54366;51.980;5.856;2022-07-29T00:09:30;0.52;;;0.40;;
67528;SDS011;54366;51.980;5.856;2022-07-29T00:11:58;1.50;;;0.80;;
67528;SDS011;54366;51.980;5.856;2022-07-29T00:14:26;1.63;;;0.50;;
67528;SDS011;54366;51.980;5.856;2022-07-29T00:16:52;1.15;;;0.50;;
67528;SDS011;54366;51.980;5.856;2022-07-29T00:19:19;1.52;;;0.57;;
67528;SDS011;54366;51.980;5.856;2022-07-29T00:21:45;1.33;;;0.75;;
67528;SDS011;54366;51.980;5.856;2022-07-29T00:24:11;1.48;;;0.70;;
67528;SDS011;54366;51.980;5.856;2022-07-29T00:26:37;1.30;;;0.57;;
67528;SDS011;54366;51.980;5.856;2022-07-29T00:29:04;1.30;;;0.70;;
67528;SDS011;54366;51.980;5.856;2022-07-29T00:31:30;1.48;;;0.50;;
67528;SDS011;54366;51.980;5.856;2022-07-29T00:33:57;1.50;;;0.73;;
67528;SDS011;54366;51.980;5.856;2022-07-29T00:36:23;2.10;;;0.70;;
67528;SDS011;54366;51.980;5.856;2022-07-29T00:38:49;1.80;;;0.70;;
67528;SDS011;54366;51.980;5.856;2022-07-29T00:41:17;2.40;;;0.40;;
67528;SDS011;54366;51.980;5.856;2022-07-29T00:43:43;1.75;;;0.70;;
67528;SDS011;54366;51.980;5.856;2022-07-29T00:46:10;1.00;;;0.57;;
67528;SDS011;54366;51.980;5.856;2022-07-29T00:48:36;3.22;;;0.60;;
67528;SDS011;54366;51.980;5.856;2022-07-29T00:51:03;0.82;;;0.30;;
67528;SDS011;54366;51.980;5.856;2022-07-29T00:53:31;2.95;;;0.50;;
67528;SDS011;54366;51.980;5.856;2022-07-29T00:55:58;1.35;;;0.80;;
67528;SDS011;54366;51.980;5.856;2022-07-29T00:58:24;2.80;;;0.70;;
67528;SDS011;54366;51.980;5.856;2022-07-29T01:00:52;1.00;;;0.50;;
67528;SDS011;54366;51.980;5.856;2022-07-29T01:03:18;1.00;;;0.60;;
67528;SDS011;54366;51.980;5.856;2022-07-29T01:05:45;1.58;;;0.65;;
67528;SDS011;54366;51.980;5.856;2022-07-29T01:08:12;2.15;;;0.65;;
67528;SDS011;54366;51.980;5.856;2022-07-29T01:10:39;1.10;;;0.68;;
67528;SDS011;54366;51.980;5.856;2022-07-29T01:13:07;3.22;;;0.77;;
67528;SDS011;54366;51.980;5.856;2022-07-29T01:15:38;1.77;;;0.60;;
67528;SDS011;54366;51.980;5.856;2022-07-29T01:18:19;1.60;;;0.60;;
67528;SDS011;54366;51.980;5.856;2022-07-29T01:26:43;1.45;;;0.70;;
67528;SDS011;54366;51.980;5.856;2022-07-29T01:29:36;1.83;;;1.10;;
67528;SDS011;54366;51.980;5.856;2022-07-29T01:34:41;1.42;;;0.80;;
67528;SDS011;54366;51.980;5.856;2022-07-29T01:40:01;1.65;;;0.55;;
67528;SDS011;54366;51.980;5.856;2022-07-29T01:42:34;1.33;;;0.70;;
67528;SDS011;54366;51.980;5.856;2022-07-29T01:45:14;3.92;;;1.00;;
67528;SDS011;54366;51.980;5.856;2022-07-29T01:47:58;2.75;;;0.90;;
67528;SDS011;54366;51.980;5.856;2022-07-29T01:50:35;1.45;;;0.70;;
67528;SDS011;54366;51.980;5.856;2022-07-29T01:53:06;0.60;;;0.60;;
67528;SDS011;54366;51.980;5.856;2022-07-29T01:55:35;0.90;;;0.57;;
67528;SDS011;54366;51.980;5.856;2022-07-29T01:58:04;2.42;;;0.85;;
67528;SDS011;54366;51.980;5.856;2022-07-29T02:00:33;1.65;;;0.73;;
67528;SDS011;54366;51.980;5.856;2022-07-29T02:03:04;1.65;;;0.70;;
67528;SDS011;54366;51.980;5.856;2022-07-29T02:05:35;1.88;;;0.50;;
67528;SDS011;54366;51.980;5.856;2022-07-29T02:08:03;1.38;;;0.60;;
67528;SDS011;54366;51.980;5.856;2022-07-29T02:10:31;1.65;;;0.73;;
67528;SDS011;54366;51.980;5.856;2022-07-29T02:13:00;1.73;;;0.80;;
67528;SDS011;54366;51.980;5.856;2022-07-29T02:15:28;1.65;;;0.65;;
67528;SDS011;54366;51.980;5.856;2022-07-29T02:18:01;0.80;;;0.50;;
67528;SDS011;54366;51.980;5.856;2022-07-29T02:20:31;1.40;;;0.68;;
67528;SDS011;54366;51.980;5.856;2022-07-29T02:22:59;1.77;;;0.60;;
67528;SDS011;54366;51.980;5.856;2022-07-29T02:25:27;2.20;;;0.70;;
67528;SDS011;54366;51.980;5.856;2022-07-29T02:27:54;1.25;;;0.70;;
67528;SDS011;54366;51.980;5.856;2022-07-29T02:30:22;1.05;;;0.50;;
67528;SDS011;54366;51.980;5.856;2022-07-29T02:32:49;2.78;;;0.77;;
67528;SDS011;54366;51.980;5.856;2022-07-29T02:35:17;2.33;;;0.60;;
67528;SDS011;54366;51.980;5.856;2022-07-29T02:37:45;2.33;;;1.00;;
67528;SDS011;54366;51.980;5.856;2022-07-29T02:40:33;1.50;;;0.75;;
67528;SDS011;54366;51.980;5.856;2022-07-29T02:43:02;1.10;;;0.60;;
67528;SDS011;54366;51.980;5.856;2022-07-29T02:45:30;1.05;;;0.73;;
67528;SDS011;54366;51.980;5.856;2022-07-29T02:47:58;1.38;;;0.60;;
67528;SDS011;54366;51.980;5.856;2022-07-29T02:50:34;2.20;;;0.80;;
67528;SDS011;54366;51.980;5.856;2022-07-29T02:53:14;1.10;;;0.63;;
67528;SDS011;54366;51.980;5.856;2022-07-29T02:56:06;1.10;;;0.77;;
67528;SDS011;54366;51.980;5.856;2022-07-29T02:58:34;1.75;;;0.60;;
67528;SDS011;54366;51.980;5.856;2022-07-29T03:01:11;1.58;;;0.90;;
67528;SDS011;54366;51.980;5.856;2022-07-29T03:03:42;1.83;;;0.80;;
67528;SDS011;54366;51.980;5.856;2022-07-29T03:06:11;2.30;;;1.08;;
67528;SDS011;54366;51.980;5.856;2022-07-29T03:08:40;2.78;;;1.15;;
67528;SDS011;54366;51.980;5.856;2022-07-29T03:11:07;1.60;;;0.80;;
67528;SDS011;54366;51.980;5.856;2022-07-29T03:13:34;2.42;;;0.95;;
67528;SDS011;54366;51.980;5.856;2022-07-29T03:16:01;1.75;;;1.08;;
67528;SDS011;54366;51.980;5.856;2022-07-29T03:18:28;1.58;;;0.90;;
67528;SDS011;54366;51.980;5.856;2022-07-29T03:20:54;1.58;;;1.10;;
67528;SDS011;54366;51.980;5.856;2022-07-29T03:23:21;1.80;;;0.90;;
67528;SDS011;54366;51.980;5.856;2022-07-29T03:25:49;3.60;;;1.60;;
67528;SDS011;54366;51.980;5.856;2022-07-29T03:28:16;3.00;;;0.93;;
67528;SDS011;54366;51.980;5.856;2022-07-29T03:30:42;2.78;;;1.42;;
67528;SDS011;54366;51.980;5.856;2022-07-29T03:33:08;1.83;;;1.10;;
67528;SDS011;54366;51.980;5.856;2022-07-29T03:35:35;2.35;;;1.30;;
67528;SDS011;54366;51.980;5.856;2022-07-29T03:38:01;2.03;;;1.30;;
67528;SDS011;54366;51.980;5.856;2022-07-29T03:40:31;2.78;;;1.55;;
67528;SDS011;54366;51.980;5.856;2022-07-29T03:43:04;1.98;;;1.60;;
67528;SDS011;54366;51.980;5.856;2022-07-29T03:45:32;2.20;;;1.50;;
67528;SDS011;54366;51.980;5.856;2022-07-29T03:48:02;4.45;;;2.00;;
67528;SDS011;54366;51.980;5.856;2022-07-29T03:50:32;1.80;;;0.98;;
67528;SDS011;54366;51.980;5.856;2022-07-29T03:53:00;2.53;;;1.20;;
67528;SDS011;54366;51.980;5.856;2022-07-29T03:55:28;1.52;;;1.33;;
67528;SDS011;54366;51.980;5.856;2022-07-29T03:57:57;2.17;;;1.30;;
67528;SDS011;54366;51.980;5.856;2022-07-29T04:00:26;1.67;;;1.33;;
67528;SDS011;54366;51.980;5.856;2022-07-29T04:02:53;2.78;;;1.60;;
67528;SDS011;54366;51.980;5.856;2022-07-29T04:05:19;1.77;;;1.45;;
67528;SDS011;54366;51.980;5.856;2022-07-29T04:07:46;2.03;;;1.25;;
67528;SDS011;54366;51.980;5.856;2022-07-29T04:10:13;1.58;;;1.40;;
67528;SDS011;54366;51.980;5.856;2022-07-29T04:12:41;3.25;;;1.83;;
67528;SDS011;54366;51.980;5.856;2022-07-29T04:15:07;3.63;;;1.75;;
67528;SDS011;54366;51.980;5.856;2022-07-29T04:17:34;3.90;;;1.77;;
67528;SDS011;54366;51.980;5.856;2022-07-29T04:20:00;2.25;;;1.42;;
67528;SDS011;54366;51.980;5.856;2022-07-29T04:22:26;1.98;;;1.45;;
67528;SDS011;54366;51.980;5.856;2022-07-29T04:24:52;1.50;;;0.98;;
67528;SDS011;54366;51.980;5.856;2022-07-29T04:27:19;1.92;;;1.60;;
67528;SDS011;54366;51.980;5.856;2022-07-29T04:29:45;1.70;;;1.40;;
67528;SDS011;54366;51.980;5.856;2022-07-29T04:32:11;2.50;;;1.77;;
67528;SDS011;54366;51.980;5.856;2022-07-29T04:34:37;2.03;;;1.45;;
67528;SDS011;54366;51.980;5.856;2022-07-29T04:37:03;2.17;;;1.75;;
67528;SDS011;54366;51.980;5.856;2022-07-29T04:39:30;2.55;;;1.73;;
67528;SDS011;54366;51.980;5.856;2022-07-29T04:41:56;1.42;;;1.30;;
67528;SDS011;54366;51.980;5.856;2022-07-29T04:44:22;2.17;;;1.70;;
67528;SDS011;54366;51.980;5.856;2022-07-29T04:46:48;2.53;;;1.50;;
67528;SDS011;54366;51.980;5.856;2022-07-29T04:49:15;2.78;;;1.40;;
67528;SDS011;54366;51.980;5.856;2022-07-29T04:51:41;2.47;;;1.67;;
67528;SDS011;54366;51.980;5.856;2022-07-29T04:54:07;3.72;;;1.98;;
67528;SDS011;54366;51.980;5.856;2022-07-29T04:56:33;1.50;;;1.40;;
67528;SDS011;54366;51.980;5.856;2022-07-29T04:58:59;3.25;;;1.85;;
67528;SDS011;54366;51.980;5.856;2022-07-29T05:01:26;2.65;;;1.70;;
67528;SDS011;54366;51.980;5.856;2022-07-29T05:03:52;2.88;;;1.90;;
67528;SDS011;54366;51.980;5.856;2022-07-29T05:06:18;1.83;;;1.63;;
67528;SDS011;54366;51.980;5.856;2022-07-29T05:08:44;1.83;;;1.73;;
67528;SDS011;54366;51.980;5.856;2022-07-29T05:11:10;1.92;;;1.40;;
67528;SDS011;54366;51.980;5.856;2022-07-29T05:13:37;3.33;;;2.08;;
67528;SDS011;54366;51.980;5.856;2022-07-29T05:16:03;3.47;;;2.00;;
67528;SDS011;54366;51.980;5.856;2022-07-29T05:18:30;3.67;;;1.77;;
67528;SDS011;54366;51.980;5.856;2022-07-29T05:20:56;3.03;;;1.45;;
67528;SDS011;54366;51.980;5.856;2022-07-29T05:23:22;2.45;;;1.60;;
67528;SDS011;54366;51.980;5.856;2022-07-29T05:25:48;2.30;;;1.63;;
67528;SDS011;54366;51.980;5.856;2022-07-29T05:28:15;1.98;;;1.63;;
67528;SDS011;54366;51.980;5.856;2022-07-29T05:30:42;2.30;;;1.40;;
67528;SDS011;54366;51.980;5.856;2022-07-29T05:33:10;2.50;;;1.38;;
67528;SDS011;54366;51.980;5.856;2022-07-29T05:35:36;2.08;;;1.33;;
67528;SDS011;54366;51.980;5.856;2022-07-29T05:38:03;3.22;;;1.55;;
67528;SDS011;54366;51.980;5.856;2022-07-29T05:40:29;3.25;;;1.35;;
67528;SDS011;54366;51.980;5.856;2022-07-29T05:42:55;2.03;;;1.20;;
67528;SDS011;54366;51.980;5.856;2022-07-29T05:45:22;1.60;;;1.30;;
67528;SDS011;54366;51.980;5.856;2022-07-29T05:47:49;2.05;;;1.50;;
67528;SDS011;54366;51.980;5.856;2022-07-29T05:50:16;3.28;;;1.27;;
67528;SDS011;54366;51.980;5.856;2022-07-29T05:52:42;3.17;;;1.52;;
67528;SDS011;54366;51.980;5.856;2022-07-29T05:55:08;2.42;;;1.40;;
67528;SDS011;54366;51.980;5.856;2022-07-29T05:57:34;2.90;;;1.45;;
67528;SDS011;54366;51.980;5.856;2022-07-29T06:00:01;2.78;;;1.45;;
67528;SDS011;54366;51.980;5.856;2022-07-29T06:02:27;1.40;;;1.30;;
67528;SDS011;54366;51.980;5.856;2022-07-29T06:04:53;2.58;;;1.70;;
67528;SDS011;54366;51.980;5.856;2022-07-29T06:07:20;2.30;;;1.80;;
67528;SDS011;54366;51.980;5.856;2022-07-29T06:09:46;2.75;;;1.75;;
67528;SDS011;54366;51.980;5.856;2022-07-29T06:12:12;2.25;;;1.50;;
67528;SDS011;54366;51.980;5.856;2022-07-29T06:14:39;1.40;;;1.30;;
67528;SDS011;54366;51.980;5.856;2022-07-29T06:17:06;3.20;;;1.58;;
67528;SDS011;54366;51.980;5.856;2022-07-29T06:19:34;2.25;;;1.90;;
67528;SDS011;54366;51.980;5.856;2022-07-29T06:22:01;2.70;;;1.23;;
67528;SDS011;54366;51.980;5.856;2022-07-29T06:24:28;3.08;;;1.77;;
67528;SDS011;54366;51.980;5.856;2022-07-29T06:26:54;2.10;;;1.17;;
67528;SDS011;54366;51.980;5.856;2022-07-29T06:29:20;1.95;;;1.40;;
67528;SDS011;54366;51.980;5.856;2022-07-29T06:31:46;1.50;;;1.40;;
67528;SDS011;54366;51.980;5.856;2022-07-29T06:34:13;3.08;;;1.35;;
67528;SDS011;54366;51.980;5.856;2022-07-29T06:36:39;3.25;;;1.70;;
67528;SDS011;54366;51.980;5.856;2022-07-29T06:39:06;2.75;;;1.35;;
67528;SDS011;54366;51.980;5.856;2022-07-29T06:41:33;1.77;;;1.60;;
67528;SDS011;54366;51.980;5.856;2022-07-29T06:44:08;2.55;;;1.80;;
67528;SDS011;54366;51.980;5.856;2022-07-29T06:46:34;1.83;;;1.30;;
67528;SDS011;54366;51.980;5.856;2022-07-29T06:49:00;3.40;;;1.40;;
67528;SDS011;54366;51.980;5.856;2022-07-29T06:51:27;1.90;;;1.60;;
67528;SDS011;54366;51.980;5.856;2022-07-29T06:53:54;2.38;;;1.38;;
67528;SDS011;54366;51.980;5.856;2022-07-29T06:56:20;2.95;;;1.80;;
67528;SDS011;54366;51.980;5.856;2022-07-29T06:58:46;1.95;;;1.38;;
67528;SDS011;54366;51.980;5.856;2022-07-29T07:01:12;1.83;;;1.40;;
67528;SDS011;54366;51.980;5.856;2022-07-29T07:03:39;1.90;;;1.70;;
67528;SDS011;54366;51.980;5.856;2022-07-29T07:06:05;3.22;;;1.83;;
67528;SDS011;54366;51.980;5.856;2022-07-29T07:08:31;2.30;;;1.70;;
67528;SDS011;54366;51.980;5.856;2022-07-29T07:10:57;3.53;;;1.60;;
67528;SDS011;54366;51.980;5.856;2022-07-29T07:13:24;3.42;;;2.10;;
67528;SDS011;54366;51.980;5.856;2022-07-29T07:15:50;1.95;;;1.50;;
67528;SDS011;54366;51.980;5.856;2022-07-29T07:18:18;2.42;;;1.58;;
67528;SDS011;54366;51.980;5.856;2022-07-29T07:20:44;3.45;;;1.65;;
67528;SDS011;54366;51.980;5.856;2022-07-29T07:23:11;2.38;;;1.33;;
67528;SDS011;54366;51.980;5.856;2022-07-29T07:25:37;2.15;;;1.52;;
67528;SDS011;54366;51.980;5.856;2022-07-29T07:28:03;3.08;;;1.90;;
67528;SDS011;54366;51.980;5.856;2022-07-29T07:30:29;3.33;;;1.60;;
67528;SDS011;54366;51.980;5.856;2022-07-29T07:32:56;1.75;;;1.65;;
67528;SDS011;54366;51.980;5.856;2022-07-29T07:35:22;1.80;;;1.67;;
67528;SDS011;54366;51.980;5.856;2022-07-29T07:37:48;3.72;;;2.10;;
67528;SDS011;54366;51.980;5.856;2022-07-29T07:40:15;3.38;;;1.67;;
67528;SDS011;54366;51.980;5.856;2022-07-29T07:42:41;2.28;;;1.75;;
67528;SDS011;54366;51.980;5.856;2022-07-29T07:45:07;2.72;;;1.58;;
67528;SDS011;54366;51.980;5.856;2022-07-29T07:47:38;2.22;;;1.42;;
67528;SDS011;54366;51.980;5.856;2022-07-29T07:50:05;1.00;;;0.90;;
67528;SDS011;54366;51.980;5.856;2022-07-29T07:52:32;2.00;;;1.27;;
67528;SDS011;54366;51.980;5.856;2022-07-29T07:54:59;2.00;;;1.00;;
67528;SDS011;54366;51.980;5.856;2022-07-29T07:57:26;1.30;;;0.90;;
67528;SDS011;54366;51.980;5.856;2022-07-29T07:59:52;1.98;;;1.17;;
67528;SDS011;54366;51.980;5.856;2022-07-29T08:02:18;1.52;;;1.00;;
67528;SDS011;54366;51.980;5.856;2022-07-29T08:04:45;2.40;;;1.40;;
67528;SDS011;54366;51.980;5.856;2022-07-29T08:07:11;3.58;;;1.88;;
67528;SDS011;54366;51.980;5.856;2022-07-29T08:09:37;2.80;;;1.50;;
67528;SDS011;54366;51.980;5.856;2022-07-29T08:12:04;1.85;;;1.17;;
67528;SDS011;54366;51.980;5.856;2022-07-29T08:14:31;1.73;;;1.10;;
67528;SDS011;54366;51.980;5.856;2022-07-29T08:16:58;1.88;;;1.25;;
67528;SDS011;54366;51.980;5.856;2022-07-29T08:19:24;3.78;;;1.45;;
67528;SDS011;54366;51.980;5.856;2022-07-29T08:21:51;2.45;;;1.60;;
67528;SDS011;54366;51.980;5.856;2022-07-29T08:24:19;3.65;;;1.73;;
67528;SDS011;54366;51.980;5.856;2022-07-29T08:27:04;2.22;;;1.10;;
67528;SDS011;54366;51.980;5.856;2022-07-29T08:29:30;3.47;;;1.75;;
67528;SDS011;54366;51.980;5.856;2022-07-29T08:31:56;3.65;;;1.45;;
67528;SDS011;54366;51.980;5.856;2022-07-29T08:34:23;1.67;;;1.40;;
67528;SDS011;54366;51.980;5.856;2022-07-29T08:36:49;3.22;;;1.70;;
67528;SDS011;54366;51.980;5.856;2022-07-29T08:39:15;3.33;;;1.70;;
67528;SDS011;54366;51.980;5.856;2022-07-29T08:41:41;2.78;;;1.65;;
67528;SDS011;54366;51.980;5.856;2022-07-29T08:44:08;3.22;;;1.50;;
67528;SDS011;54366;51.980;5.856;2022-07-29T08:46:37;1.50;;;1.20;;
67528;SDS011;54366;51.980;5.856;2022-07-29T08:49:05;2.83;;;1.55;;
67528;SDS011;54366;51.980;5.856;2022-07-29T08:51:31;2.67;;;1.70;;
67528;SDS011;54366;51.980;5.856;2022-07-29T08:53:59;2.75;;;1.58;;
67528;SDS011;54366;51.980;5.856;2022-07-29T08:56:25;1.35;;;1.00;;
67528;SDS011;54366;51.980;5.856;2022-07-29T08:58:52;2.13;;;1.30;;
67528;SDS011;54366;51.980;5.856;2022-07-29T09:01:24;1.73;;;1.40;;
67528;SDS011;54366;51.980;5.856;2022-07-29T09:03:54;1.90;;;1.10;;
67528;SDS011;54366;51.980;5.856;2022-07-29T09:06:22;1.13;;;1.00;;
67528;SDS011;54366;51.980;5.856;2022-07-29T09:08:51;3.30;;;1.15;;
67528;SDS011;54366;51.980;5.856;2022-07-29T09:11:17;3.05;;;1.35;;
67528;SDS011;54366;51.980;5.856;2022-07-29T09:13:44;3.17;;;1.45;;
67528;SDS011;54366;51.980;5.856;2022-07-29T09:16:10;2.13;;;1.02;;
67528;SDS011;54366;51.980;5.856;2022-07-29T09:18:40;2.47;;;1.10;;
67528;SDS011;54366;51.980;5.856;2022-07-29T09:21:09;1.48;;;1.30;;
67528;SDS011;54366;51.980;5.856;2022-07-29T09:24:10;1.88;;;1.30;;
67528;SDS011;54366;51.980;5.856;2022-07-29T09:26:41;2.10;;;1.40;;
67528;SDS011;54366;51.980;5.856;2022-07-29T09:29:10;2.03;;;0.95;;
67528;SDS011;54366;51.980;5.856;2022-07-29T09:31:41;0.73;;;0.70;;
67528;SDS011;54366;51.980;5.856;2022-07-29T09:34:09;1.33;;;0.98;;
67528;SDS011;54366;51.980;5.856;2022-07-29T09:36:40;2.25;;;1.23;;
67528;SDS011;54366;51.980;5.856;2022-07-29T09:39:08;1.40;;;1.30;;
67528;SDS011;54366;51.980;5.856;2022-07-29T09:41:51;2.08;;;1.20;;
67528;SDS011;54366;51.980;5.856;2022-07-29T09:44:19;1.73;;;1.55;;
67528;SDS011;54366;51.980;5.856;2022-07-29T09:46:56;1.30;;;1.10;;
67528;SDS011;54366;51.980;5.856;2022-07-29T09:49:24;1.60;;;1.02;;
67528;SDS011;54366;51.980;5.856;2022-07-29T09:52:04;2.92;;;1.65;;
67528;SDS011;54366;51.980;5.856;2022-07-29T09:54:32;2.17;;;1.40;;
67528;SDS011;54366;51.980;5.856;2022-07-29T09:57:03;1.63;;;1.30;;
67528;SDS011;54366;51.980;5.856;2022-07-29T09:59:56;1.23;;;1.00;;
67528;SDS011;54366;51.980;5.856;2022-07-29T10:02:28;1.23;;;1.10;;
67528;SDS011;54366;51.980;5.856;2022-07-29T10:04:56;2.80;;;1.17;;
67528;SDS011;54366;51.980;5.856;2022-07-29T10:07:23;1.95;;;1.10;;
67528;SDS011;54366;51.980;5.856;2022-07-29T10:09:53;3.85;;;1.52;;
67528;SDS011;54366;51.980;5.856;2022-07-29T10:12:21;1.52;;;1.00;;
67528;SDS011;54366;51.980;5.856;2022-07-29T10:14:48;2.25;;;1.30;;
67528;SDS011;54366;51.980;5.856;2022-07-29T10:17:15;2.60;;;1.20;;
67528;SDS011;54366;51.980;5.856;2022-07-29T10:19:42;3.47;;;1.60;;
67528;SDS011;54366;51.980;5.856;2022-07-29T10:22:09;1.63;;;1.40;;
67528;SDS011;54366;51.980;5.856;2022-07-29T10:24:37;1.45;;;1.10;;
67528;SDS011;54366;51.980;5.856;2022-07-29T10:27:06;3.97;;;1.48;;
67528;SDS011;54366;51.980;5.856;2022-07-29T10:29:34;1.55;;;1.00;;
67528;SDS011;54366;51.980;5.856;2022-07-29T10:32:16;1.70;;;1.10;;
67528;SDS011;54366;51.980;5.856;2022-07-29T10:38:07;1.88;;;1.20;;
67528;SDS011;54366;51.980;5.856;2022-07-29T10:40:54;2.50;;;1.30;;
67528;SDS011;54366;51.980;5.856;2022-07-29T10:43:59;2.03;;;1.23;;
67528;SDS011;54366;51.980;5.856;2022-07-29T10:46:28;2.53;;;1.70;;
67528;SDS011;54366;51.980;5.856;2022-07-29T10:54:16;5.75;;;2.80;;
67528;SDS011;54366;51.980;5.856;2022-07-29T10:56:43;5.03;;;1.77;;
67528;SDS011;54366;51.980;5.856;2022-07-29T11:01:45;4.15;;;2.05;;
67528;SDS011;54366;51.980;5.856;2022-07-29T11:04:13;2.33;;;1.58;;
67528;SDS011;54366;51.980;5.856;2022-07-29T11:09:26;2.92;;;1.25;;
67528;SDS011;54366;51.980;5.856;2022-07-29T11:11:53;3.25;;;1.30;;
67528;SDS011;54366;51.980;5.856;2022-07-29T11:14:54;1.83;;;1.27;;
67528;SDS011;54366;51.980;5.856;2022-07-29T11:17:17;2.65;;;1.40;;
67528;SDS011;54366;51.980;5.856;2022-07-29T11:19:44;2.35;;;1.00;;
67528;SDS011;54366;51.980;5.856;2022-07-29T11:22:10;3.88;;;1.40;;
67528;SDS011;54366;51.980;5.856;2022-07-29T11:24:37;2.15;;;1.10;;
67528;SDS011;54366;51.980;5.856;2022-07-29T11:27:13;1.73;;;0.90;;
67528;SDS011;54366;51.980;5.856;2022-07-29T11:32:35;2.15;;;1.10;;
67528;SDS011;54366;51.980;5.856;2022-07-29T11:35:23;2.33;;;1.60;;
67528;SDS011;54366;51.980;5.856;2022-07-29T11:38:22;3.97;;;1.50;;
67528;SDS011;54366;51.980;5.856;2022-07-29T11:49:23;3.15;;;1.40;;
67528;SDS011;54366;51.980;5.856;2022-07-29T11:51:54;2.80;;;1.70;;
67528;SDS011;54366;51.980;5.856;2022-07-29T11:54:25;2.97;;;1.63;;
67528;SDS011;54366;51.980;5.856;2022-07-29T11:56:59;4.38;;;1.33;;
67528;SDS011;54366;51.980;5.856;2022-07-29T11:59:26;2.45;;;1.40;;
67528;SDS011;54366;51.980;5.856;2022-07-29T12:01:56;3.53;;;1.33;;
67528;SDS011;54366;51.980;5.856;2022-07-29T12:04:23;1.40;;;1.15;;
67528;SDS011;54366;51.980;5.856;2022-07-29T12:06:50;2.85;;;1.70;;
67528;SDS011;54366;51.980;5.856;2022-07-29T12:09:17;2.90;;;1.42;;
67528;SDS011;54366;51.980;5.856;2022-07-29T12:11:45;1.95;;;1.50;;
67528;SDS011;54366;51.980;5.856;2022-07-29T12:14:25;2.38;;;1.60;;
67528;SDS011;54366;51.980;5.856;2022-07-29T12:16:56;2.10;;;1.30;;
67528;SDS011;54366;51.980;5.856;2022-07-29T12:19:22;2.25;;;1.60;;
67528;SDS011;54366;51.980;5.856;2022-07-29T12:21:50;4.82;;;1.52;;
67528;SDS011;54366;51.980;5.856;2022-07-29T12:24:18;2.30;;;1.30;;
67528;SDS011;54366;51.980;5.856;2022-07-29T12:26:51;2.17;;;1.40;;
67528;SDS011;54366;51.980;5.856;2022-07-29T12:29:19;2.50;;;1.40;;
67528;SDS011;54366;51.980;5.856;2022-07-29T12:31:46;2.45;;;1.60;;
67528;SDS011;54366;51.980;5.856;2022-07-29T12:34:20;3.10;;;1.38;;
67528;SDS011;54366;51.980;5.856;2022-07-29T12:36:49;2.08;;;1.40;;
67528;SDS011;54366;51.980;5.856;2022-07-29T12:39:16;2.53;;;1.33;;
67528;SDS011;54366;51.980;5.856;2022-07-29T12:41:43;1.95;;;1.23;;
67528;SDS011;54366;51.980;5.856;2022-07-29T12:44:09;2.95;;;1.45;;
67528;SDS011;54366;51.980;5.856;2022-07-29T12:46:36;2.67;;;1.42;;
67528;SDS011;54366;51.980;5.856;2022-07-29T12:49:02;1.40;;;1.17;;
67528;SDS011;54366;51.980;5.856;2022-07-29T12:51:37;1.55;;;1.00;;
67528;SDS011;54366;51.980;5.856;2022-07-29T12:56:36;2.42;;;1.30;;
67528;SDS011;54366;51.980;5.856;2022-07-29T12:59:20;2.00;;;1.30;;
67528;SDS011;54366;51.980;5.856;2022-07-29T13:01:49;2.90;;;1.70;;
67528;SDS011;54366;51.980;5.856;2022-07-29T13:04:24;2.50;;;1.40;;
67528;SDS011;54366;51.980;5.856;2022-07-29T13:06:58;2.60;;;1.20;;
67528;SDS011;54366;51.980;5.856;2022-07-29T13:12:01;1.45;;;1.20;;
67528;SDS011;54366;51.980;5.856;2022-07-29T13:14:33;2.35;;;1.17;;
67528;SDS011;54366;51.980;5.856;2022-07-29T13:17:07;1.67;;;1.15;;
67528;SDS011;54366;51.980;5.856;2022-07-29T13:22:12;2.40;;;1.20;;
67528;SDS011;54366;51.980;5.856;2022-07-29T13:24:56;1.55;;;1.30;;
67528;SDS011;54366;51.980;5.856;2022-07-29T13:27:24;1.52;;;1.42;;
67528;SDS011;54366;51.980;5.856;2022-07-29T13:29:55;3.05;;;1.20;;
67528;SDS011;54366;51.980;5.856;2022-07-29T13:32:27;1.67;;;1.33;;
67528;SDS011;54366;51.980;5.856;2022-07-29T13:34:59;1.77;;;1.20;;
67528;SDS011;54366;51.980;5.856;2022-07-29T13:37:26;1.73;;;1.20;;
67528;SDS011;54366;51.980;5.856;2022-07-29T13:39:57;1.50;;;1.35;;
67528;SDS011;54366;51.980;5.856;2022-07-29T13:42:24;1.90;;;1.10;;
67528;SDS011;54366;51.980;5.856;2022-07-29T13:44:52;1.45;;;1.20;;
67528;SDS011;54366;51.980;5.856;2022-07-29T13:47:21;3.05;;;1.25;;
67528;SDS011;54366;51.980;5.856;2022-07-29T13:49:50;2.35;;;1.60;;
67528;SDS011;54366;51.980;5.856;2022-07-29T13:52:17;2.35;;;1.20;;
67528;SDS011;54366;51.980;5.856;2022-07-29T13:54:43;1.58;;;1.30;;
67528;SDS011;54366;51.980;5.856;2022-07-29T13:57:10;2.03;;;1.25;;
67528;SDS011;54366;51.980;5.856;2022-07-29T13:59:37;1.75;;;1.30;;
67528;SDS011;54366;51.980;5.856;2022-07-29T14:02:03;3.72;;;1.50;;
67528;SDS011;54366;51.980;5.856;2022-07-29T14:04:30;3.15;;;1.48;;
67528;SDS011;54366;51.980;5.856;2022-07-29T14:06:57;1.95;;;1.35;;
67528;SDS011;54366;51.980;5.856;2022-07-29T14:09:23;2.55;;;1.50;;
67528;SDS011;54366;51.980;5.856;2022-07-29T14:11:49;2.88;;;1.40;;
67528;SDS011;54366;51.980;5.856;2022-07-29T14:14:17;1.95;;;1.48;;
67528;SDS011;54366;51.980;5.856;2022-07-29T14:16:43;3.33;;;1.40;;
67528;SDS011;54366;51.980;5.856;2022-07-29T14:19:09;1.58;;;1.30;;
67528;SDS011;54366;51.980;5.856;2022-07-29T14:21:36;1.88;;;1.42;;
67528;SDS011;54366;51.980;5.856;2022-07-29T14:24:03;1.50;;;1.30;;
67528;SDS011;54366;51.980;5.856;2022-07-29T14:26:30;1.75;;;1.05;;
67528;SDS011;54366;51.980;5.856;2022-07-29T14:28:56;1.73;;;1.08;;
67528;SDS011;54366;51.980;5.856;2022-07-29T14:31:23;1.90;;;1.10;;
67528;SDS011;54366;51.980;5.856;2022-07-29T14:33:49;1.25;;;0.90;;
67528;SDS011;54366;51.980;5.856;2022-07-29T14:36:15;3.22;;;1.40;;
67528;SDS011;54366;51.980;5.856;2022-07-29T14:38:41;1.45;;;1.00;;
67528;SDS011;54366;51.980;5.856;2022-07-29T14:41:08;1.27;;;1.10;;
67528;SDS011;54366;51.980;5.856;2022-07-29T14:43:34;1.25;;;1.00;;
67528;SDS011;54366;51.980;5.856;2022-07-29T14:46:01;1.83;;;1.10;;
67528;SDS011;54366;51.980;5.856;2022-07-29T14:48:27;1.80;;;1.05;;
67528;SDS011;54366;51.980;5.856;2022-07-29T14:50:53;1.73;;;1.20;;
67528;SDS011;54366;51.980;5.856;2022-07-29T14:53:21;1.20;;;0.90;;
67528;SDS011;54366;51.980;5.856;2022-07-29T14:55:48;2.67;;;1.27;;
67528;SDS011;54366;51.980;5.856;2022-07-29T14:58:14;1.65;;;1.23;;
67528;SDS011;54366;51.980;5.856;2022-07-29T15:00:41;2.38;;;1.15;;
67528;SDS011;54366;51.980;5.856;2022-07-29T15:03:07;2.25;;;1.17;;
67528;SDS011;54366;51.980;5.856;2022-07-29T15:05:35;2.88;;;1.25;;
67528;SDS011;54366;51.980;5.856;2022-07-29T15:08:02;0.90;;;0.90;;
67528;SDS011;54366;51.980;5.856;2022-07-29T15:10:28;1.58;;;0.93;;
67528;SDS011;54366;51.980;5.856;2022-07-29T15:12:55;1.17;;;1.00;;
67528;SDS011;54366;51.980;5.856;2022-07-29T15:15:21;1.38;;;0.80;;
67528;SDS011;54366;51.980;5.856;2022-07-29T15:17:47;1.80;;;0.80;;
67528;SDS011;54366;51.980;5.856;2022-07-29T15:20:14;1.02;;;0.93;;
67528;SDS011;54366;51.980;5.856;2022-07-29T15:22:40;1.08;;;0.90;;
67528;SDS011;54366;51.980;5.856;2022-07-29T15:25:07;1.77;;;1.02;;
67528;SDS011;54366;51.980;5.856;2022-07-29T15:27:34;1.30;;;1.20;;
67528;SDS011;54366;51.980;5.856;2022-07-29T15:30:00;1.40;;;1.08;;
67528;SDS011;54366;51.980;5.856;2022-07-29T15:32:26;0.95;;;0.80;;
67528;SDS011;54366;51.980;5.856;2022-07-29T15:34:53;0.85;;;0.77;;
67528;SDS011;54366;51.980;5.856;2022-07-29T15:37:19;1.58;;;0.90;;
67528;SDS011;54366;51.980;5.856;2022-07-29T15:39:45;2.42;;;1.23;;
67528;SDS011;54366;51.980;5.856;2022-07-29T15:42:12;3.60;;;1.20;;